Time;durP1;ratioP1;P1;durP2;ratioP2;P2;SDS_P1;SDS_P2;PMS_P1;PMS_P2;Temp;Humidity;BMP_temperature;BMP_pressure;BME280_temperature;BME280_humidity;BME280_pressure;Samples;Min_cycle;Max_cycle;Signal;HPM_P1;HPM_P2
2023/04/16 00:00:31;;;;;;;16.73;13.68;;;11.60;99.90;;;;;;5014904;28;20131;-72
2023/04/16 00:02:56;;;;;;;18.98;15.48;;;11.60;99.90;;;;;;5028185;28;20033;-72
2023/04/16 00:05:22;;;;;;;22.20;16.23;;;11.50;99.90;;;;;;5020965;28;20032;-71
2023/04/16 00:07:50;;;;;;;19.52;14.68;;;11.50;99.90;;;;;;5017767;28;20351;-71
2023/04/16 00:10:16;;;;;;;15.90;13.77;;;11.60;99.90;;;;;;5023856;28;20052;-71
2023/04/16 00:12:42;;;;;;;19.77;15.27;;;11.60;99.90;;;;;;5020480;28;20037;-71
2023/04/16 00:15:07;;;;;;;17.00;14.30;;;11.50;99.90;;;;;;5016845;28;20152;-71
2023/04/16 00:17:33;;;;;;;19.48;15.88;;;11.60;99.90;;;;;;5029688;28;20037;-71
2023/04/16 00:19:59;;;;;;;19.15;15.35;;;11.60;99.90;;;;;;5012875;28;20034;-71
2023/04/16 00:22:25;;;;;;;20.23;15.70;;;11.60;99.90;;;;;;5035086;28;20049;-71
2023/04/16 00:24:50;;;;;;;19.30;15.75;;;11.50;99.90;;;;;;5013470;28;20348;-71
2023/04/16 00:27:17;;;;;;;19.45;15.82;;;11.50;99.90;;;;;;5034314;28;20114;-71
2023/04/16 00:29:43;;;;;;;21.75;16.40;;;11.60;99.90;;;;;;5014527;28;20037;-71
2023/04/16 00:32:09;;;;;;;20.33;16.48;;;11.50;99.90;;;;;;5035853;28;20091;-71
2023/04/16 00:34:34;;;;;;;21.33;16.67;;;11.50;99.90;;;;;;5013342;28;20032;-71
2023/04/16 00:37:00;;;;;;;20.00;16.38;;;11.50;99.90;;;;;;5037789;28;20029;-71
2023/04/16 00:39:25;;;;;;;21.80;16.73;;;11.50;99.90;;;;;;5013027;28;20056;-71
2023/04/16 00:41:51;;;;;;;19.85;16.83;;;11.50;99.90;;;;;;5022431;28;20058;-71
2023/04/16 00:44:17;;;;;;;21.75;16.80;;;11.50;99.90;;;;;;5015294;28;20107;-72
2023/04/16 00:46:43;;;;;;;21.83;16.58;;;11.50;99.90;;;;;;5027895;28;20041;-72
2023/04/16 00:49:09;;;;;;;20.27;16.60;;;11.60;99.90;;;;;;5027558;28;20164;-72
2023/04/16 00:51:35;;;;;;;20.23;16.63;;;11.60;99.90;;;;;;5036040;28;20025;-71
2023/04/16 00:54:01;;;;;;;24.50;16.25;;;11.60;99.90;;;;;;5021800;28;20049;-71
2023/04/16 00:56:28;;;;;;;22.08;18.23;;;11.60;99.90;;;;;;5023157;28;20022;-71
2023/04/16 00:58:57;;;;;;;20.73;18.30;;;11.60;99.90;;;;;;5018782;28;20033;-71
2023/04/16 01:01:23;;;;;;;24.58;17.20;;;11.60;99.90;;;;;;5011523;28;20050;-71
2023/04/16 01:03:49;;;;;;;21.15;17.77;;;11.70;99.90;;;;;;5024933;28;20128;-70
2023/04/16 01:06:18;;;;;;;21.50;18.05;;;11.60;99.90;;;;;;5051923;28;20051;-71
2023/04/16 01:08:45;;;;;;;23.08;18.63;;;11.60;99.90;;;;;;5025842;28;20068;-71
2023/04/16 01:11:11;;;;;;;22.17;17.30;;;11.60;99.90;;;;;;5041397;28;20021;-71
2023/04/16 01:13:38;;;;;;;22.90;18.23;;;11.60;99.90;;;;;;5021759;28;20032;-71
2023/04/16 01:16:06;;;;;;;22.65;18.15;;;11.60;99.90;;;;;;5019506;28;20038;-71
2023/04/16 01:18:32;;;;;;;20.60;16.35;;;11.60;99.90;;;;;;5023903;28;20108;-71
2023/04/16 01:20:58;;;;;;;22.60;18.20;;;11.60;99.90;;;;;;5025142;28;20558;-71
2023/04/16 01:23:23;;;;;;;35.55;19.48;;;11.60;99.90;;;;;;5024884;28;20084;-71
2023/04/16 01:25:49;;;;;;;23.63;18.23;;;11.60;99.90;;;;;;5026813;28;20494;-72
2023/04/16 01:28:14;;;;;;;21.38;17.27;;;11.60;99.90;;;;;;5025624;28;20112;-72
2023/04/16 01:30:40;;;;;;;27.20;18.42;;;11.70;99.90;;;;;;5037651;28;20532;-72
2023/04/16 01:33:06;;;;;;;24.33;18.48;;;11.70;99.90;;;;;;5020641;28;20453;-71
2023/04/16 01:35:32;;;;;;;23.65;18.55;;;11.70;99.90;;;;;;5038733;28;20029;-72
2023/04/16 01:37:58;;;;;;;23.85;19.45;;;11.70;99.90;;;;;;5029266;28;20064;-71
2023/04/16 01:40:24;;;;;;;23.23;18.73;;;11.70;99.90;;;;;;5041294;28;20077;-71
2023/04/16 01:42:50;;;;;;;24.95;19.10;;;11.60;99.90;;;;;;5028500;28;20362;-72
2023/04/16 01:45:16;;;;;;;26.77;19.52;;;11.60;99.90;;;;;;5021147;28;20034;-71
2023/04/16 01:47:41;;;;;;;21.30;17.17;;;11.60;99.90;;;;;;5021805;28;20026;-71
2023/04/16 01:50:08;;;;;;;23.08;18.10;;;11.60;99.90;;;;;;5017914;28;20072;-71
2023/04/16 01:52:34;;;;;;;22.33;17.42;;;11.60;99.90;;;;;;5014880;28;20070;-71
2023/04/16 01:54:59;;;;;;;24.80;18.88;;;11.60;99.90;;;;;;5029019;28;20037;-71
2023/04/16 01:57:25;;;;;;;22.27;18.42;;;11.60;99.90;;;;;;5020485;28;20109;-71
2023/04/16 01:59:51;;;;;;;22.48;16.95;;;11.60;99.90;;;;;;5025684;28;20070;-71
2023/04/16 02:02:16;;;;;;;25.55;19.40;;;11.60;99.90;;;;;;5012700;28;20022;-71
2023/04/16 02:04:44;;;;;;;22.70;18.33;;;11.60;99.90;;;;;;5017231;28;20479;-71
2023/04/16 02:07:10;;;;;;;26.38;19.75;;;11.60;99.90;;;;;;5047763;28;20028;-71
2023/04/16 02:09:39;;;;;;;24.83;19.70;;;11.50;99.90;;;;;;5018362;28;20499;-71
2023/04/16 02:12:06;;;;;;;24.50;18.30;;;11.50;99.90;;;;;;5023060;28;20028;-71
2023/04/16 02:14:32;;;;;;;23.33;19.15;;;11.60;99.90;;;;;;5020336;28;20037;-71
2023/04/16 02:16:59;;;;;;;22.95;17.80;;;11.60;99.90;;;;;;5023500;28;20033;-71
2023/04/16 02:19:25;;;;;;;21.67;17.38;;;11.60;99.90;;;;;;5012413;28;20064;-71
2023/04/16 02:21:51;;;;;;;22.40;18.45;;;11.60;99.90;;;;;;5037800;28;20480;-71
2023/04/16 02:24:18;;;;;;;23.30;18.30;;;11.70;99.90;;;;;;5034725;28;20029;-71
2023/04/16 02:26:44;;;;;;;20.88;16.80;;;11.70;99.90;;;;;;5035268;28;20134;-71
2023/04/16 02:29:10;;;;;;;21.10;16.95;;;11.70;99.90;;;;;;5021627;28;20125;-71
2023/04/16 02:31:36;;;;;;;22.65;17.33;;;11.70;99.90;;;;;;5050759;28;20515;-70
2023/04/16 02:34:02;;;;;;;19.90;16.67;;;11.70;99.90;;;;;;5029084;28;20025;-70
2023/04/16 02:36:27;;;;;;;21.02;16.92;;;11.70;99.90;;;;;;5047001;28;20025;-70
2023/04/16 02:38:53;;;;;;;22.13;17.48;;;11.70;99.90;;;;;;5033390;28;20092;-70
2023/04/16 02:41:18;;;;;;;21.02;16.70;;;11.70;99.90;;;;;;5042447;28;20029;-70
2023/04/16 02:43:44;;;;;;;22.55;17.60;;;11.60;99.90;;;;;;5037253;28;20121;-70
2023/04/16 02:46:10;;;;;;;22.02;16.08;;;11.60;99.90;;;;;;5025091;28;20037;-70
2023/04/16 02:48:36;;;;;;;22.52;17.90;;;11.60;99.90;;;;;;5022434;28;20025;-70
2023/04/16 02:51:01;;;;;;;20.55;17.17;;;11.60;99.90;;;;;;5028063;28;20043;-70
2023/04/16 02:53:27;;;;;;;22.95;17.48;;;11.60;99.90;;;;;;5047380;28;20535;-70
2023/04/16 02:55:54;;;;;;;21.73;17.42;;;11.50;99.90;;;;;;5029063;28;20418;-70
2023/04/16 02:58:21;;;;;;;19.77;15.82;;;11.50;99.90;;;;;;5031292;28;20482;-70
2023/04/16 03:00:47;;;;;;;23.25;17.20;;;11.50;99.90;;;;;;5034332;28;20052;-70
2023/04/16 03:03:13;;;;;;;22.90;17.63;;;11.50;99.90;;;;;;5023234;28;20087;-71
2023/04/16 03:05:39;;;;;;;24.63;17.73;;;11.50;99.90;;;;;;5025277;28;20120;-72
2023/04/16 03:08:05;;;;;;;22.23;17.58;;;11.50;99.90;;;;;;5026909;28;20018;-72
2023/04/16 03:10:31;;;;;;;23.45;17.92;;;11.50;99.90;;;;;;5039125;28;20028;-72
2023/04/16 03:12:57;;;;;;;25.02;18.42;;;11.40;99.90;;;;;;5054190;28;20388;-72
2023/04/16 03:15:23;;;;;;;28.55;22.02;;;11.40;99.90;;;;;;5030558;28;20024;-72
2023/04/16 03:17:48;;;;;;;28.52;20.83;;;11.40;99.90;;;;;;5025970;28;20018;-72
2023/04/16 03:20:16;;;;;;;26.83;19.88;;;11.40;99.90;;;;;;5023933;28;20033;-72
2023/04/16 03:22:42;;;;;;;26.48;20.52;;;11.30;99.90;;;;;;5017818;28;20389;-72
2023/04/16 03:25:07;;;;;;;30.63;21.92;;;11.30;99.90;;;;;;5030559;28;20035;-71
2023/04/16 03:27:33;;;;;;;24.58;18.48;;;11.20;99.90;;;;;;5033325;28;20029;-70
2023/04/16 03:29:59;;;;;;;29.30;21.00;;;11.20;99.90;;;;;;5034023;28;20389;-71
2023/04/16 03:32:25;;;;;;;31.30;22.83;;;11.20;99.90;;;;;;5014249;28;20037;-71
2023/04/16 03:34:51;;;;;;;26.48;21.00;;;11.20;99.90;;;;;;5021742;28;20442;-72
2023/04/16 03:37:16;;;;;;;31.05;21.60;;;11.20;99.90;;;;;;5014209;28;20029;-73
2023/04/16 03:39:42;;;;;;;31.65;22.75;;;11.10;99.90;;;;;;5022799;28;20037;-72
2023/04/16 03:42:08;;;;;;;28.13;21.65;;;11.10;99.90;;;;;;5014598;28;20022;-72
2023/04/16 03:44:33;;;;;;;25.52;18.95;;;11.10;99.90;;;;;;5023664;28;20048;-72
2023/04/16 03:46:59;;;;;;;29.27;21.85;;;11.10;99.90;;;;;;5032747;28;20029;-71
2023/04/16 03:49:25;;;;;;;28.35;21.38;;;11.10;99.90;;;;;;5019510;28;20034;-70
2023/04/16 03:51:50;;;;;;;26.63;20.55;;;11.00;99.90;;;;;;5013311;28;20024;-71
2023/04/16 03:54:16;;;;;;;30.83;21.23;;;11.10;99.90;;;;;;5025202;28;20418;-71
2023/04/16 03:56:42;;;;;;;28.40;20.48;;;11.00;99.90;;;;;;5028929;28;20032;-72
2023/04/16 03:59:08;;;;;;;28.75;20.55;;;11.00;99.90;;;;;;5017863;28;20083;-72
2023/04/16 04:01:34;;;;;;;29.83;20.48;;;11.00;99.90;;;;;;5026937;28;20037;-72
2023/04/16 04:04:00;;;;;;;25.98;18.65;;;11.00;99.90;;;;;;5024963;28;20022;-72
2023/04/16 04:06:26;;;;;;;30.40;21.98;;;11.10;99.90;;;;;;5019689;28;20056;-71
2023/04/16 04:08:52;;;;;;;28.15;20.88;;;11.00;99.90;;;;;;5047194;28;20094;-71
2023/04/16 04:11:18;;;;;;;30.90;20.90;;;11.00;99.90;;;;;;5030658;28;20033;-71
2023/04/16 04:13:43;;;;;;;32.00;22.27;;;11.00;99.90;;;;;;5027628;28;20534;-71
2023/04/16 04:16:09;;;;;;;28.15;21.48;;;11.10;99.90;;;;;;5028085;28;20036;-70
2023/04/16 04:18:35;;;;;;;28.27;21.33;;;11.00;99.90;;;;;;5013685;28;20165;-70
2023/04/16 04:21:05;;;;;;;28.85;21.20;;;11.00;99.90;;;;;;5017928;28;20500;-70
2023/04/16 04:23:31;;;;;;;31.13;21.65;;;11.00;99.90;;;;;;5039931;28;20385;-70
2023/04/16 04:25:56;;;;;;;27.08;19.85;;;11.00;99.90;;;;;;5032720;28;20029;-70
2023/04/16 04:28:22;;;;;;;31.98;23.08;;;11.00;99.90;;;;;;5026504;28;20014;-70
2023/04/16 04:30:48;;;;;;;31.25;21.73;;;11.00;99.90;;;;;;5019685;28;20108;-70
2023/04/16 04:33:13;;;;;;;29.85;21.30;;;10.90;99.90;;;;;;5013213;28;20065;-70
2023/04/16 04:35:39;;;;;;;29.25;21.95;;;10.90;99.90;;;;;;5012351;28;20029;-70
2023/04/16 04:38:05;;;;;;;29.60;21.88;;;10.90;99.90;;;;;;5031719;28;20022;-70
2023/04/16 04:40:30;;;;;;;32.38;22.35;;;11.00;99.90;;;;;;5040045;28;20504;-71
2023/04/16 04:42:56;;;;;;;29.55;20.00;;;11.00;99.90;;;;;;5019066;28;20013;-71
2023/04/16 04:45:24;;;;;;;28.15;20.25;;;11.00;99.90;;;;;;5021992;28;20049;-71
2023/04/16 04:47:54;;;;;;;29.27;20.52;;;11.00;99.90;;;;;;5016073;28;20045;-73
2023/04/16 04:50:20;;;;;;;28.98;21.35;;;11.10;99.90;;;;;;5015613;28;20488;-70
2023/04/16 04:52:46;;;;;;;31.77;22.52;;;11.10;99.90;;;;;;5012516;28;20065;-69
2023/04/16 04:55:14;;;;;;;31.15;20.10;;;11.10;99.90;;;;;;5018886;28;20057;-69
2023/04/16 04:57:40;;;;;;;33.33;22.33;;;11.10;99.90;;;;;;5027908;28;20437;-68
2023/04/16 05:00:07;;;;;;;29.58;21.20;;;11.00;99.90;;;;;;5026029;28;20084;-67
2023/04/16 05:02:33;;;;;;;31.92;22.13;;;11.00;99.90;;;;;;5024084;28;20036;-68
2023/04/16 05:04:58;;;;;;;26.83;20.30;;;11.00;99.90;;;;;;5040426;28;20104;-68
2023/04/16 05:07:24;;;;;;;30.65;22.00;;;11.00;99.90;;;;;;5012651;28;20397;-68
2023/04/16 05:09:50;;;;;;;31.08;21.52;;;11.00;99.90;;;;;;5011515;28;20084;-68
2023/04/16 05:12:16;;;;;;;32.28;22.02;;;11.00;99.90;;;;;;5028583;28;20088;-68
2023/04/16 05:14:42;;;;;;;31.58;23.33;;;11.00;99.90;;;;;;5040586;28;20048;-69
2023/04/16 05:17:09;;;;;;;28.77;20.73;;;11.00;99.90;;;;;;5030394;28;20029;-69
2023/04/16 05:19:35;;;;;;;34.60;21.67;;;11.10;99.90;;;;;;5029515;28;20056;-70
2023/04/16 05:22:01;;;;;;;30.98;21.33;;;11.10;99.90;;;;;;5030491;28;20477;-69
2023/04/16 05:24:27;;;;;;;29.75;19.80;;;11.10;99.90;;;;;;5021235;28;20437;-70
2023/04/16 05:26:52;;;;;;;28.65;20.27;;;11.00;99.90;;;;;;5023965;28;20026;-70
2023/04/16 05:29:18;;;;;;;28.75;21.60;;;11.00;99.90;;;;;;5028998;28;20089;-69
2023/04/16 05:31:44;;;;;;;31.02;20.27;;;11.10;99.90;;;;;;5024519;28;20021;-69
2023/04/16 05:34:10;;;;;;;30.75;20.02;;;11.00;99.90;;;;;;5040358;28;20431;-70
2023/04/16 05:36:35;;;;;;;28.38;19.50;;;11.00;99.90;;;;;;5027603;28;20032;-69
2023/04/16 05:39:01;;;;;;;26.38;20.02;;;11.00;99.90;;;;;;5011687;28;20092;-69
2023/04/16 05:41:26;;;;;;;26.90;19.23;;;11.00;99.90;;;;;;5023924;28;20033;-68
2023/04/16 05:43:52;;;;;;;28.88;19.58;;;11.00;99.90;;;;;;5035355;28;20485;-68
2023/04/16 05:46:18;;;;;;;26.85;19.52;;;11.00;99.90;;;;;;5041779;28;20025;-69
2023/04/16 05:48:43;;;;;;;23.88;18.08;;;11.00;99.90;;;;;;5029921;28;20037;-69
2023/04/16 05:51:09;;;;;;;29.42;18.35;;;11.00;99.90;;;;;;5030174;28;20469;-70
2023/04/16 05:53:34;;;;;;;32.08;20.83;;;10.90;99.90;;;;;;5034232;28;20044;-72
2023/04/16 05:56:00;;;;;;;26.88;17.92;;;11.00;99.90;;;;;;5036894;28;20512;-70
2023/04/16 05:58:26;;;;;;;27.42;17.45;;;11.00;99.90;;;;;;5019796;28;20037;-69
2023/04/16 06:00:51;;;;;;;25.50;17.60;;;10.90;99.90;;;;;;5023460;28;20075;-70
2023/04/16 06:03:17;;;;;;;28.75;18.63;;;11.00;99.90;;;;;;5035264;28;20369;-69
2023/04/16 06:05:43;;;;;;;25.10;17.80;;;11.00;99.90;;;;;;5028897;28;20045;-69
2023/04/16 06:08:09;;;;;;;26.73;17.70;;;11.00;99.90;;;;;;5029525;28;20051;-71
2023/04/16 06:10:34;;;;;;;25.33;16.33;;;10.90;99.90;;;;;;5025975;28;20041;-71
2023/04/16 06:13:00;;;;;;;25.90;16.90;;;10.90;99.90;;;;;;5014714;28;20054;-73
2023/04/16 06:15:26;;;;;;;24.80;15.88;;;11.00;99.90;;;;;;5021272;28;20115;-72
2023/04/16 06:17:53;;;;;;;25.52;18.88;;;11.00;99.90;;;;;;5026327;28;20030;-72
2023/04/16 06:20:18;;;;;;;28.52;18.80;;;11.00;99.90;;;;;;5010800;28;20394;-72
2023/04/16 06:22:45;;;;;;;23.45;17.75;;;11.00;99.90;;;;;;5017427;28;20033;-72
2023/04/16 06:25:10;;;;;;;24.55;16.85;;;11.00;99.90;;;;;;5021559;28;20064;-73
2023/04/16 06:27:36;;;;;;;23.63;17.02;;;11.00;99.90;;;;;;5019458;28;20025;-73
2023/04/16 06:30:01;;;;;;;27.10;18.02;;;11.10;99.90;;;;;;5015195;28;20065;-73
2023/04/16 06:32:27;;;;;;;26.45;19.38;;;11.10;99.90;;;;;;5024427;28;20037;-72
2023/04/16 06:34:53;;;;;;;25.38;18.38;;;11.10;99.90;;;;;;5021333;28;20120;-72
2023/04/16 06:37:18;;;;;;;22.02;17.00;;;11.10;99.90;;;;;;5030861;28;20390;-71
2023/04/16 06:39:44;;;;;;;24.10;17.80;;;11.20;99.90;;;;;;5018417;28;20046;-71
2023/04/16 06:42:09;;;;;;;30.35;18.38;;;11.20;99.90;;;;;;5031372;28;20112;-73
2023/04/16 06:44:35;;;;;;;24.10;18.15;;;11.20;99.90;;;;;;5028964;28;20033;-72
2023/04/16 06:47:00;;;;;;;27.13;18.83;;;11.20;99.90;;;;;;5016314;28;20037;-72
2023/04/16 06:49:26;;;;;;;23.95;17.42;;;11.30;99.90;;;;;;5028013;28;20029;-72
2023/04/16 06:51:52;;;;;;;27.92;18.67;;;11.30;99.90;;;;;;5024992;28;20044;-71
2023/04/16 06:54:18;;;;;;;25.25;18.58;;;11.30;99.90;;;;;;5032360;28;20029;-72
2023/04/16 06:56:44;;;;;;;24.25;16.30;;;11.30;99.90;;;;;;5018452;28;20045;-72
2023/04/16 06:59:10;;;;;;;25.27;18.83;;;11.30;99.90;;;;;;5016765;28;20033;-72
2023/04/16 07:01:35;;;;;;;25.33;16.98;;;11.30;99.90;;;;;;5026533;28;20118;-72
2023/04/16 07:04:02;;;;;;;24.20;17.08;;;11.30;99.90;;;;;;5020713;28;20493;-72
2023/04/16 07:06:27;;;;;;;26.70;17.90;;;11.30;99.90;;;;;;5032864;28;20030;-73
2023/04/16 07:08:53;;;;;;;21.90;15.73;;;11.20;99.90;;;;;;5016315;28;20048;-71
2023/04/16 07:11:19;;;;;;;27.02;17.60;;;11.20;99.90;;;;;;5026483;28;20568;-72
2023/04/16 07:13:45;;;;;;;26.23;16.90;;;11.20;99.90;;;;;;5035373;28;20479;-72
2023/04/16 07:16:11;;;;;;;22.33;15.77;;;11.30;99.90;;;;;;5022329;28;20018;-72
2023/04/16 07:18:36;;;;;;;25.75;17.20;;;11.30;99.90;;;;;;5022594;28;20048;-71
2023/04/16 07:21:02;;;;;;;23.30;16.55;;;11.20;99.90;;;;;;5023126;28;20189;-71
2023/04/16 07:23:29;;;;;;;23.25;16.33;;;11.20;99.90;;;;;;5026971;28;20072;-72
2023/04/16 07:25:54;;;;;;;22.90;16.77;;;11.20;99.90;;;;;;5039433;28;20056;-72
2023/04/16 07:28:20;;;;;;;24.25;17.25;;;11.20;99.90;;;;;;5015970;28;20291;-72
2023/04/16 07:30:46;;;;;;;26.55;18.42;;;11.20;99.90;;;;;;5024629;28;20103;-72
2023/04/16 07:33:11;;;;;;;21.65;15.95;;;11.30;99.90;;;;;;5037023;28;20034;-72
2023/04/16 07:35:37;;;;;;;21.17;16.75;;;11.20;99.90;;;;;;5026830;28;20021;-72
2023/04/16 07:38:02;;;;;;;22.63;16.42;;;11.30;99.90;;;;;;5016774;28;20492;-72
2023/04/16 07:40:28;;;;;;;24.42;17.38;;;11.30;99.90;;;;;;5028045;28;20033;-72
2023/04/16 07:42:55;;;;;;;24.80;17.13;;;11.30;99.90;;;;;;5025612;28;20557;-72
2023/04/16 07:45:20;;;;;;;22.17;15.60;;;11.40;99.90;;;;;;5024065;28;20021;-72
2023/04/16 07:47:46;;;;;;;23.35;16.52;;;11.30;99.90;;;;;;5040009;28;20032;-73
2023/04/16 07:50:12;;;;;;;22.58;16.42;;;11.40;99.90;;;;;;5016565;28;20029;-72
2023/04/16 07:52:40;;;;;;;23.17;17.17;;;11.40;99.90;;;;;;5023373;28;20541;-72
2023/04/16 07:55:07;;;;;;;23.27;16.30;;;11.50;99.90;;;;;;5015282;28;20037;-73
2023/04/16 07:57:32;;;;;;;21.67;15.48;;;11.50;99.90;;;;;;5018378;28;20060;-72
2023/04/16 08:00:00;;;;;;;25.38;16.52;;;11.50;99.90;;;;;;5013181;28;20069;-72
2023/04/16 08:02:26;;;;;;;19.67;15.15;;;11.50;99.90;;;;;;5005434;28;20033;-72
2023/04/16 08:04:52;;;;;;;24.02;17.08;;;11.50;99.90;;;;;;4996497;28;20060;-75
2023/04/16 08:07:17;;;;;;;22.95;16.13;;;11.50;99.90;;;;;;5001436;28;20038;-72
2023/04/16 08:09:49;;;;;;;21.65;15.60;;;11.50;99.90;;;;;;5000951;28;20703;-73
2023/04/16 08:12:16;;;;;;;21.10;14.00;;;11.50;99.90;;;;;;5004892;28;20022;-71
2023/04/16 08:14:42;;;;;;;22.58;15.82;;;11.50;99.90;;;;;;5001290;28;20061;-72
2023/04/16 08:17:08;;;;;;;23.65;16.55;;;11.60;99.90;;;;;;5002372;28;20017;-71
2023/04/16 08:19:33;;;;;;;20.05;15.65;;;11.50;99.90;;;;;;5009910;28;20095;-71
2023/04/16 08:21:59;;;;;;;21.40;14.98;;;11.60;99.90;;;;;;5001942;28;20057;-71
2023/04/16 08:24:25;;;;;;;20.90;15.25;;;11.60;99.90;;;;;;5008180;28;20104;-71
2023/04/16 08:26:51;;;;;;;22.40;15.52;;;11.50;99.90;;;;;;4996008;28;20038;-71
2023/04/16 08:29:17;;;;;;;22.02;15.25;;;11.60;99.90;;;;;;5004956;28;20122;-71
2023/04/16 08:31:42;;;;;;;22.25;15.93;;;11.50;99.90;;;;;;5001093;28;20031;-71
2023/04/16 08:34:10;;;;;;;21.00;15.40;;;11.50;99.90;;;;;;5003203;28;20060;-71
2023/04/16 08:36:36;;;;;;;19.15;13.90;;;11.50;99.90;;;;;;4995788;28;20022;-71
2023/04/16 08:39:01;;;;;;;21.98;15.25;;;11.50;99.90;;;;;;5002204;28;20065;-70
2023/04/16 08:41:33;;;;;;;22.30;14.75;;;11.50;99.90;;;;;;4993493;28;20121;-71
2023/04/16 08:44:03;;;;;;;24.50;15.43;;;11.50;99.90;;;;;;4995359;28;20026;-71
2023/04/16 08:46:30;;;;;;;19.77;14.75;;;11.60;99.90;;;;;;4993816;28;20037;-72
2023/04/16 08:48:59;;;;;;;21.17;14.55;;;11.60;99.90;;;;;;4994538;28;20030;-71
2023/04/16 08:51:28;;;;;;;20.05;15.27;;;11.60;99.90;;;;;;4993935;28;20370;-71
2023/04/16 08:54:03;;;;;;;22.92;13.55;;;11.50;99.90;;;;;;5000659;28;20406;-70
2023/04/16 08:56:31;;;;;;;20.45;16.05;;;11.50;99.90;;;;;;5013548;28;20022;-71
2023/04/16 08:59:03;;;;;;;19.92;14.90;;;11.50;99.90;;;;;;5007612;28;20046;-71
2023/04/16 09:01:31;;;;;;;20.58;15.07;;;11.50;99.90;;;;;;4992612;28;20062;-71
2023/04/16 09:04:00;;;;;;;18.92;14.45;;;11.50;99.90;;;;;;4993909;28;20030;-71
2023/04/16 09:06:27;;;;;;;21.63;15.52;;;11.50;99.90;;;;;;4992976;28;20029;-70
2023/04/16 09:08:54;;;;;;;27.10;16.58;;;11.50;99.90;;;;;;5008302;28;20118;-71
2023/04/16 09:11:20;;;;;;;22.15;16.08;;;11.40;99.90;;;;;;4992722;28;20803;-70
2023/04/16 09:13:46;;;;;;;24.67;17.48;;;11.40;99.90;;;;;;4992788;28;20117;-71
2023/04/16 09:16:13;;;;;;;22.25;16.15;;;11.40;99.90;;;;;;4993428;28;20068;-71
2023/04/16 09:18:40;;;;;;;23.05;16.55;;;11.40;99.90;;;;;;4991313;28;20030;-69
2023/04/16 09:21:11;;;;;;;22.52;16.17;;;11.50;99.90;;;;;;4994967;28;20037;-71
2023/04/16 09:23:39;;;;;;;23.27;16.42;;;11.50;99.90;;;;;;4998713;28;20382;-71
2023/04/16 09:26:05;;;;;;;21.83;15.40;;;11.50;99.90;;;;;;4992883;28;20041;-71
2023/04/16 09:28:40;;;;;;;20.77;15.60;;;11.60;99.90;;;;;;4994508;28;20022;-71
2023/04/16 09:31:10;;;;;;;19.00;14.10;;;11.70;99.90;;;;;;5002332;28;20045;-71
2023/04/16 09:33:35;;;;;;;19.15;13.75;;;11.70;99.90;;;;;;4995370;28;20026;-71
2023/04/16 09:36:01;;;;;;;17.23;13.75;;;11.80;99.90;;;;;;4993000;28;20478;-71
2023/04/16 09:38:47;;;;;;;19.52;13.40;;;11.80;99.90;;;;;;4999407;28;20018;-71
2023/04/16 09:41:16;;;;;;;19.83;14.02;;;11.90;99.90;;;;;;4995529;28;20022;-71
2023/04/16 09:44:00;;;;;;;19.92;13.40;;;11.90;99.90;;;;;;4992587;28;20112;-71
2023/04/16 09:46:40;;;;;;;18.60;13.95;;;11.90;99.90;;;;;;4992742;28;20038;-71
2023/04/16 09:49:13;;;;;;;17.85;13.90;;;11.90;99.90;;;;;;4992421;28;20648;-70
2023/04/16 09:51:48;;;;;;;19.35;14.15;;;11.90;99.90;;;;;;4995662;28;20381;-71
2023/04/16 09:54:14;;;;;;;;;;;11.90;99.90;;;;;;4994142;28;20034;-71
2023/04/16 09:56:44;;;;;;;19.42;14.20;;;12.00;99.90;;;;;;4996429;28;19910;-71
2023/04/16 09:59:17;;;;;;;19.15;14.93;;;12.00;99.90;;;;;;4996580;28;20045;-71
2023/04/16 10:01:45;;;;;;;20.50;14.73;;;12.00;99.90;;;;;;4999995;28;20387;-72
2023/04/16 10:04:11;;;;;;;21.58;16.15;;;12.00;99.90;;;;;;4997769;28;20038;-71
2023/04/16 10:06:36;;;;;;;18.63;14.82;;;11.90;99.90;;;;;;4997745;28;20551;-71
2023/04/16 10:09:06;;;;;;;21.48;15.20;;;12.00;99.90;;;;;;4996840;28;20056;-71
2023/04/16 10:11:32;;;;;;;21.70;15.90;;;12.00;99.90;;;;;;4998795;28;20061;-71
2023/04/16 10:13:58;;;;;;;20.30;14.98;;;12.00;99.90;;;;;;5001642;28;20260;-72
2023/04/16 10:16:24;;;;;;;17.02;14.50;;;12.10;99.90;;;;;;4996844;28;20723;-71
2023/04/16 10:18:50;;;;;;;21.05;14.63;;;12.10;99.90;;;;;;4994411;28;20157;-71
2023/04/16 10:21:16;;;;;;;21.30;14.93;;;12.10;99.90;;;;;;5010490;28;20036;-71
2023/04/16 10:23:42;;;;;;;20.75;15.15;;;12.10;99.90;;;;;;5003699;28;20034;-71
2023/04/16 10:26:08;;;;;;;23.50;16.10;;;12.10;99.90;;;;;;4996330;28;20033;-71
2023/04/16 10:28:35;;;;;;;22.23;15.88;;;12.10;99.90;;;;;;4997820;28;20034;-72
2023/04/16 10:31:05;;;;;;;21.20;15.93;;;12.10;99.90;;;;;;5000615;28;20053;-71
2023/04/16 10:33:33;;;;;;;22.70;16.33;;;12.10;99.90;;;;;;5009520;28;20393;-71
2023/04/16 10:36:14;;;;;;;22.65;16.90;;;12.10;99.90;;;;;;5008096;28;20508;-70
2023/04/16 10:38:44;;;;;;;22.67;15.75;;;12.20;99.90;;;;;;5003436;28;20034;-71
2023/04/16 10:41:10;;;;;;;20.20;15.70;;;12.20;99.90;;;;;;4997343;28;20387;-71
2023/04/16 10:43:44;;;;;;;24.20;17.80;;;12.20;99.90;;;;;;5001042;28;20037;-70
2023/04/16 10:46:30;;;;;;;25.08;17.35;;;12.20;99.90;;;;;;4999880;28;20561;-70
2023/04/16 10:49:00;;;;;;;26.25;18.20;;;12.10;99.90;;;;;;5002125;28;20116;-69
2023/04/16 10:51:31;;;;;;;23.88;17.67;;;12.10;99.90;;;;;;4998208;28;20030;-69
2023/04/16 10:54:07;;;;;;;24.30;16.98;;;12.20;99.90;;;;;;5009504;28;20029;-69
2023/04/16 10:56:34;;;;;;;26.00;19.05;;;12.10;99.90;;;;;;4996302;28;20030;-70
2023/04/16 10:59:03;;;;;;;21.75;17.10;;;12.20;99.90;;;;;;4999778;28;20037;-69
2023/04/16 11:01:34;;;;;;;23.42;17.92;;;12.30;99.90;;;;;;5008332;28;20125;-69
2023/04/16 11:04:20;;;;;;;25.27;17.85;;;12.30;99.90;;;;;;5002117;28;20160;-70
2023/04/16 11:07:15;;;;;;;22.88;16.98;;;12.40;99.90;;;;;;4998483;28;20517;-70
2023/04/16 11:10:11;;;;;;;22.25;16.90;;;12.40;99.90;;;;;;5005927;28;20377;-70
2023/04/16 11:12:39;;;;;;;20.58;16.13;;;12.40;99.90;;;;;;5013296;28;20065;-70
2023/04/16 11:15:05;;;;;;;22.73;16.85;;;12.40;99.90;;;;;;5008802;28;20038;-70
2023/04/16 11:17:53;;;;;;;23.80;17.70;;;12.40;99.90;;;;;;4998587;28;20036;-70
2023/04/16 11:20:22;;;;;;;21.23;16.77;;;12.50;99.90;;;;;;4995694;28;20402;-71
2023/04/16 11:22:49;;;;;;;23.90;17.33;;;12.60;99.90;;;;;;4994816;28;20030;-71
2023/04/16 11:25:22;;;;;;;18.95;15.35;;;12.60;99.90;;;;;;5004701;28;20034;-71
2023/04/16 11:27:48;;;;;;;17.63;15.07;;;12.70;99.90;;;;;;4997279;28;20030;-71
2023/04/16 11:30:14;;;;;;;22.08;15.82;;;12.80;99.90;;;;;;5004382;28;20033;-69
2023/04/16 11:32:40;;;;;;;19.95;15.98;;;12.90;99.90;;;;;;4995809;28;21802;-70
2023/04/16 11:35:16;;;;;;;20.23;16.38;;;12.90;99.90;;;;;;5005169;28;20031;-72
2023/04/16 11:37:43;;;;;;;18.67;14.68;;;12.90;99.90;;;;;;5002814;28;20438;-71
2023/04/16 11:40:09;;;;;;;19.95;15.32;;;13.00;99.90;;;;;;5013473;28;20045;-71
2023/04/16 11:42:36;;;;;;;21.55;16.08;;;13.00;99.90;;;;;;4999536;28;20057;-72
2023/04/16 11:45:03;;;;;;;17.48;14.73;;;13.00;99.90;;;;;;4997438;28;20034;-73
2023/04/16 11:47:30;;;;;;;17.55;14.88;;;13.00;99.90;;;;;;4995130;28;20065;-71
2023/04/16 11:50:14;;;;;;;17.75;13.82;;;12.90;99.90;;;;;;5007479;28;20409;-70
2023/04/16 11:52:40;;;;;;;18.77;14.00;;;12.90;99.90;;;;;;4995538;28;20026;-70
2023/04/16 11:55:05;;;;;;;17.63;14.63;;;12.90;99.90;;;;;;4996575;28;20096;-70
2023/04/16 11:57:31;;;;;;;19.25;14.60;;;12.90;99.90;;;;;;5003453;28;20015;-70
2023/04/16 11:59:58;;;;;;;18.10;14.88;;;12.90;99.90;;;;;;5006754;28;20250;-71
2023/04/16 12:02:50;;;;;;;19.48;17.02;;;12.80;99.90;;;;;;5002672;28;20483;-72
2023/04/16 12:05:30;;;;;;;16.85;14.95;;;12.90;99.90;;;;;;5017085;28;20457;-70
2023/04/16 12:07:57;;;;;;;19.58;16.00;;;12.90;99.90;;;;;;4997809;28;20026;-71
2023/04/16 12:10:23;;;;;;;17.48;14.35;;;12.90;99.90;;;;;;4995774;28;20069;-71
2023/04/16 12:12:48;;;;;;;19.23;15.15;;;13.00;99.90;;;;;;5003728;28;20057;-70
2023/04/16 12:15:14;;;;;;;18.92;13.38;;;13.10;99.90;;;;;;5009514;28;20025;-70
2023/04/16 12:17:40;;;;;;;16.95;14.25;;;13.10;99.90;;;;;;5000206;28;20507;-69
2023/04/16 12:20:14;;;;;;;18.27;13.82;;;13.10;99.90;;;;;;5011065;28;20584;-69
2023/04/16 12:22:47;;;;;;;17.73;15.33;;;13.10;99.90;;;;;;4994527;28;20066;-69
2023/04/16 12:25:15;;;;;;;18.48;15.18;;;13.00;99.90;;;;;;4994830;28;20500;-70
2023/04/16 12:27:54;;;;;;;19.02;15.57;;;12.90;99.90;;;;;;4994961;28;20018;-70